Impacts METAR Board INFO
IDs:

KPDX - Portland Intl Arpt, OR, US

Updated at: 1759 UTC 22 Jan 2018
Potential Impact None Slight Moderate High
Time22/05Z 22/06Z 22/07Z 22/08Z 22/09Z 22/10Z 22/11Z 22/12Z 22/13Z 22/14Z 22/15Z 22/16Z 22/17Z
VIS10 10 10 4 10 10 10 10 10 10 10 10 10
CIG230 80 45 42 -- -- 14 50 40 27 95 100 60
CoverBKNBKNOVCOVCFEWFEWOVCBKNOVCOVCBKNBKNBKN
FltCatVFRVFRVFRMVFRVFRVFRMVFRVFRVFRMVFRVFRVFRVFR
WX------+RA BR---------RA-RA------
WDir130140110150120120120120200220210200200
WSpd6 6 5 7 7 7 6 4 8 4 8 8 13
WGst-- -- -- -- -- -- -- -- -- -- -- -- --
Raw hourly METARs
KPDX 220453Z 13006KT 10SM FEW060 SCT090 BKN230 07/04 A3009 RMK AO2 SLP188 T00670044
KPDX 220553Z 14006KT 10SM SCT045 BKN080 07/04 A3010 RMK AO2 SLP193 60000 T00720044 10094 20056 51016
KPDX 220653Z 11005KT 10SM BKN045 BKN050 OVC070 07/04 A3013 RMK AO2 SLP202 T00670044
KPDX 220753Z 15007KT 4SM +RA BR BKN042 OVC050 07/05 A3014 RMK AO2 RAB41 SLP205 P0000 T00670050 401060056
KPDX 220853Z 12007KT 10SM FEW045 FEW220 05/03 A3015 RMK AO2 RAE11 SLP207 P0004 60004 T00500033 51014
KPDX 220953Z 12007KT 10SM FEW045 05/03 A3016 RMK AO2 SLP213 T00500033
KPDX 221102Z 12006KT 10SM BKN014 OVC050 06/04 A3018 RMK AO2 T00610044
KPDX 221153Z 12004KT 10SM FEW015 SCT037 BKN050 06/04 A3019 RMK AO2 SLP223 60004 70020 T00560044 10072 20044 51015
KPDX 221253Z 20008KT 10SM -RA FEW015 OVC040 07/05 A3020 RMK AO2 RAB22 SLP227 P0001 T00670050
KPDX 221353Z 22004KT 10SM -RA SCT015 BKN027 OVC033 07/06 A3023 RMK AO2 SLP235 P0008 T00670056
KPDX 221453Z 21008KT 10SM FEW017 SCT050 BKN095 07/05 A3024 RMK AO2 RAE1358B17E45 SLP237 P0001 60010 T00670050 51015
KPDX 221553Z 20008KT 10SM FEW015 SCT050 BKN100 07/05 A3026 RMK AO2 SLP245 T00670050
KPDX 221653Z 20013KT 10SM FEW015 SCT045 BKN060 07/05 A3028 RMK AO2 SLP254 T00720050